Time;durP1;ratioP1;P1;durP2;ratioP2;P2;SDS_P1;SDS_P2;PMS_P1;PMS_P2;Temp;Humidity;BMP_temperature;BMP_pressure;BME280_temperature;BME280_humidity;BME280_pressure;Samples;Min_cycle;Max_cycle;Signal;HPM_P1;HPM_P2
2021/01/08 00:19:25;;;;;;;;;;;0.00;99.40;;;;;;5706110;23;19929;-86
2021/01/08 00:34:48;;;;;;;;;;;0.00;99.60;;;;;;5130420;23;19948;-86
2021/01/08 00:52:46;;;;;;;;;;;0.20;99.70;;;;;;6094060;23;19916;-75
2021/01/08 01:02:57;;;;;;;;;;;0.40;99.50;;;;;;5650669;23;19925;-87
2021/01/08 01:07:58;;;;;;;;;;;0.40;99.60;;;;;;5840608;23;19926;-85
2021/01/08 01:38:53;;;;;;;;;;;0.60;98.90;;;;;;5705595;23;19909;-86
2021/01/08 01:46:29;;;;;;;;;;;0.70;99.30;;;;;;5895844;23;19913;-75
2021/01/08 01:56:41;;;;;;;;;;;0.80;99.20;;;;;;5400433;23;19922;-86
2021/01/08 02:06:53;;;;;;;;;;;0.80;98.90;;;;;;5470377;23;19909;-87
2021/01/08 02:09:19;;;;;;;;;;;0.90;99.00;;;;;;5794617;23;19924;-84
2021/01/08 02:11:47;;;;;;;;;;;0.90;99.10;;;;;;5736228;23;19909;-79
2021/01/08 02:16:50;;;;;;;;;;;0.80;98.90;;;;;;5774931;23;19926;-85
2021/01/08 02:19:37;;;;;;;;;;;0.90;98.90;;;;;;5039100;28;19904;-86
2021/01/08 02:38:01;;;;;;;;;;;1.00;98.90;;;;;;5190200;23;19909;-87
2021/01/08 02:50:38;;;;;;;;;;;1.00;99.10;;;;;;5648647;23;19910;-87
2021/01/08 02:58:15;;;;;;;;;;;1.00;98.80;;;;;;5943944;23;19917;-75
2021/01/08 03:47:17;;;;;;;;;;;1.20;99.30;;;;;;4681461;23;20185;-83
2021/01/08 03:49:43;;;;;;;;;;;1.20;99.30;;;;;;5162557;23;19909;-87
2021/01/08 03:52:08;;;;;;;;;;;1.10;99.40;;;;;;5058257;28;19898;-85
2021/01/08 03:54:35;;;;;;;;;;;1.20;99.30;;;;;;5058564;28;19924;-85
2021/01/08 03:57:00;;;;;;;;;;;1.20;99.30;;;;;;5438277;23;20957;-81
2021/01/08 04:17:27;;;;;;;;;;;1.20;99.70;;;;;;6085642;23;21053;-80
2021/01/08 04:25:03;;;;;;;;;;;1.30;99.70;;;;;;5531654;23;19932;-85
2021/01/08 04:27:29;;;;;;;;;;;1.20;99.60;;;;;;5041593;28;19937;-85
2021/01/08 04:29:54;;;;;;;;;;;1.30;99.80;;;;;;5039563;28;19965;-86
2021/01/08 04:32:19;;;;;;;;;;;1.30;99.80;;;;;;5501837;23;19910;-86
2021/01/08 04:34:45;;;;;;;;;;;1.30;99.90;;;;;;5041884;28;19893;-85
2021/01/08 04:57:50;;;;;;;;;;;1.30;99.80;;;;;;5555545;23;19929;-86
2021/01/08 05:07:59;;;;;;;;;;;1.40;99.90;;;;;;5057567;28;19925;-86
2021/01/08 05:10:25;;;;;;;;;;;1.30;99.70;;;;;;5059967;28;19897;-86
2021/01/08 05:12:51;;;;;;;;;;;1.40;99.70;;;;;;5060694;28;19920;-86
2021/01/08 05:15:17;;;;;;;;;;;1.40;99.80;;;;;;5866692;23;19924;-84
2021/01/08 05:22:56;;;;;;;;;;;1.30;99.90;;;;;;5409420;23;19932;-85
2021/01/08 05:25:22;;;;;;;;;;;1.40;99.90;;;;;;5106109;23;19909;-84
2021/01/08 05:27:48;;;;;;;;;;;1.40;99.90;;;;;;5311007;23;19909;-76
2021/01/08 05:32:56;;;;;;;;;;;1.40;99.90;;;;;;5607656;23;19916;-83
2021/01/08 05:40:33;;;;;;;;;;;1.60;99.90;;;;;;5311084;23;19934;-79
2021/01/08 05:45:34;;;;;;;;;;;1.50;99.90;;;;;;5581686;23;19941;-87
2021/01/08 05:48:00;;;;;;;;;;;1.50;99.90;;;;;;5039863;28;19914;-86
2021/01/08 05:50:28;;;;;;;;;;;1.50;99.90;;;;;;5308237;23;19916;-85
2021/01/08 05:53:05;;;;;;;;;;;1.50;99.90;;;;;;5040482;28;19897;-87
2021/01/08 06:00:41;;;;;;;;;;;1.50;99.90;;;;;;5688468;23;19933;-86
2021/01/08 06:03:07;;;;;;;;;;;1.50;99.90;;;;;;5052747;28;19973;-86
2021/01/08 06:05:34;;;;;;;;;;;1.50;99.90;;;;;;5573622;23;19915;-85
2021/01/08 06:15:47;;;;;;;;;;;1.70;99.90;;;;;;5730377;23;19909;-85
2021/01/08 06:18:13;;;;;;;;;;;1.80;99.90;;;;;;5655057;23;20902;-86
2021/01/08 06:20:39;;;;;;;;;;;1.70;99.70;;;;;;5382943;23;19936;-86
2021/01/08 06:25:40;;;;;;;;;;;1.60;99.80;;;;;;5367057;23;19925;-87
2021/01/08 06:28:08;;;;;;;;;;;1.60;99.90;;;;;;5039426;28;19897;-86
2021/01/08 06:30:35;;;;;;;;;;;1.60;99.90;;;;;;5429846;23;20424;-83
2021/01/08 06:33:02;;;;;;;;;;;1.50;99.90;;;;;;5059171;28;19943;-86
2021/01/08 06:38:11;;;;;;;;;;;1.50;99.90;;;;;;5397699;23;19916;-86
2021/01/08 06:40:42;;;;;;;;;;;1.60;99.90;;;;;;5055032;28;19898;-86
2021/01/08 06:43:11;;;;;;;;;;;1.60;99.90;;;;;;5038796;28;19960;-86
2021/01/08 06:45:37;;;;;;;;;;;1.70;99.90;;;;;;5038642;28;19914;-87
2021/01/08 06:48:04;;;;;;;;;;;1.70;99.80;;;;;;5038213;28;19925;-86
2021/01/08 06:50:37;;;;;;;;;;;1.80;99.90;;;;;;5024695;28;19935;-85
2021/01/08 06:53:09;;;;;;;;;;;1.70;99.70;;;;;;5038832;28;19893;-85
2021/01/08 06:55:35;;;;;;;;;;;1.60;99.70;;;;;;5038126;28;19898;-85
2021/01/08 06:58:01;;;;;;;;;;;1.60;99.70;;;;;;5038772;28;19906;-85
2021/01/08 07:00:27;;;;;;;;;;;1.60;99.80;;;;;;5038826;28;19913;-85
2021/01/08 07:02:55;;;;;;;;;;;1.50;99.80;;;;;;5038931;28;19898;-85
2021/01/08 07:10:33;;;;;;;;;;;1.60;99.90;;;;;;5292452;23;19909;-85
2021/01/08 07:23:28;;;;;;;;;;;1.90;99.60;;;;;;6003498;23;19924;-84
2021/01/08 07:25:57;;;;;;;;;;;1.90;99.50;;;;;;5038000;28;19917;-85
2021/01/08 07:28:24;;;;;;;;;;;1.90;99.50;;;;;;5037647;28;19913;-85
2021/01/08 07:31:09;;;;;;;;;;;1.80;99.50;;;;;;5037453;28;19932;-84
2021/01/08 07:33:43;;;;;;;;;;;1.80;99.70;;;;;;5225233;23;19920;-83
2021/01/08 07:36:18;;;;;;;;;;;1.80;99.70;;;;;;5124452;23;19929;-85
2021/01/08 07:38:44;;;;;;;;;;;1.70;99.70;;;;;;5041396;28;19897;-85
2021/01/08 07:41:10;;;;;;;;;;;1.80;99.80;;;;;;5058570;28;19913;-86
2021/01/08 07:46:11;;;;;;;;;;;1.80;99.90;;;;;;5653381;23;19910;-84
2021/01/08 07:48:40;;;;;;;;;;;1.80;99.90;;;;;;5036645;28;19928;-85
2021/01/08 07:51:07;;;;;;;;;;;1.80;99.90;;;;;;5038476;28;19897;-86
2021/01/08 07:53:42;;;;;;;;;;;1.80;99.90;;;;;;5034019;28;19914;-85
2021/01/08 07:56:08;;;;;;;;;;;1.90;99.90;;;;;;5032432;28;19932;-85
2021/01/08 07:58:36;;;;;;;;;;;1.80;99.80;;;;;;5040450;28;19953;-83
2021/01/08 08:01:07;;;;;;;;;;;1.90;99.80;;;;;;5027897;28;19901;-84
2021/01/08 08:03:32;;;;;;;;;;;1.90;99.80;;;;;;5044878;28;19965;-84
2021/01/08 08:06:02;;;;;;;;;;;2.00;99.90;;;;;;5035797;28;19901;-84
2021/01/08 08:08:27;;;;;;;;;;;1.90;99.90;;;;;;5029029;28;19914;-83
2021/01/08 08:11:06;;;;;;;;;;;2.00;99.80;;;;;;5034388;28;19981;-84
2021/01/08 08:13:32;;;;;;;;;;;2.00;99.80;;;;;;5027606;28;19986;-82
2021/01/08 08:15:57;;;;;;;;;;;2.00;99.70;;;;;;5028386;28;19917;-84
2021/01/08 08:18:23;;;;;;;;;;;2.00;99.30;;;;;;5028950;28;19968;-83
2021/01/08 08:20:49;;;;;;;;;;;1.90;99.20;;;;;;5029255;28;19898;-84
2021/01/08 08:23:18;;;;;;;;;;;1.90;99.40;;;;;;5025302;28;19902;-84
2021/01/08 08:25:44;;;;;;;;;;;1.80;99.50;;;;;;5027645;28;19969;-84
2021/01/08 08:28:10;;;;;;;;;;;1.70;99.60;;;;;;5027073;28;19910;-84
2021/01/08 08:30:36;;;;;;;;;;;1.70;99.80;;;;;;5028188;28;19944;-83
2021/01/08 08:33:05;;;;;;;;;;;1.90;99.90;;;;;;5046979;28;19898;-84
2021/01/08 08:35:34;;;;;;;;;;;1.90;99.70;;;;;;5038729;28;19928;-83
2021/01/08 08:37:59;;;;;;;;;;;1.90;99.70;;;;;;5031601;28;19920;-84
2021/01/08 08:40:29;;;;;;;;;;;2.00;99.80;;;;;;5049660;23;20869;-83
2021/01/08 08:42:58;;;;;;;;;;;2.00;99.80;;;;;;5039751;28;19925;-85
2021/01/08 08:45:34;;;;;;;;;;;2.00;99.70;;;;;;5037693;28;19910;-83
2021/01/08 08:48:05;;;;;;;;;;;2.00;99.70;;;;;;5040044;28;19904;-84
2021/01/08 08:50:31;;;;;;;;;;;2.00;99.70;;;;;;5027164;28;19893;-84
2021/01/08 08:52:57;;;;;;;;;;;2.00;99.70;;;;;;5036526;28;19937;-84
2021/01/08 08:55:33;;;;;;;;;;;2.10;99.70;;;;;;5031014;28;19917;-84
2021/01/08 08:58:12;;;;;;;;;;;2.10;99.70;;;;;;5031754;28;19976;-84
2021/01/08 09:00:38;;;;;;;;;;;2.10;99.70;;;;;;5037408;28;19913;-84
2021/01/08 09:03:17;;;;;;;;;;;2.10;99.60;;;;;;5039543;28;19900;-84
2021/01/08 09:08:20;;;;;;;;;;;2.20;99.50;;;;;;5226464;23;19909;-85
2021/01/08 09:10:49;;;;;;;;;;;2.20;99.40;;;;;;5062987;28;19913;-85
2021/01/08 09:13:18;;;;;;;;;;;2.20;99.30;;;;;;5057223;28;19909;-84
2021/01/08 09:15:51;;;;;;;;;;;2.30;99.30;;;;;;5056436;28;19913;-84
2021/01/08 09:18:24;;;;;;;;;;;2.30;99.20;;;;;;5052133;28;19914;-83
2021/01/08 09:20:51;;;;;;;;;;;2.30;99.20;;;;;;5058967;28;19914;-84
2021/01/08 09:23:17;;;;;;;;;;;2.30;99.10;;;;;;5063118;28;19935;-84
2021/01/08 09:25:43;;;;;;;;;;;2.40;99.00;;;;;;5059164;28;19913;-83
2021/01/08 09:28:15;;;;;;;;;;;2.40;99.10;;;;;;5058586;28;19900;-84
2021/01/08 09:30:51;;;;;;;;;;;2.40;99.00;;;;;;5047658;28;19917;-85
2021/01/08 09:33:17;;;;;;;;;;;2.40;98.90;;;;;;5058993;28;19924;-83
2021/01/08 09:35:45;;;;;;;;;;;2.40;99.10;;;;;;5059477;28;19928;-84
2021/01/08 09:40:46;;;;;;;;;;;2.50;98.90;;;;;;5109037;23;19929;-84
2021/01/08 09:43:16;;;;;;;;;;;2.50;98.70;;;;;;5057909;28;19920;-85
2021/01/08 09:45:42;;;;;;;;;;;2.60;99.00;;;;;;5056112;28;19913;-83
2021/01/08 09:48:19;;;;;;;;;;;2.60;98.80;;;;;;5055438;28;19976;-83
2021/01/08 09:50:45;;;;;;;;;;;2.50;98.80;;;;;;5041848;28;19967;-84
2021/01/08 09:53:11;;;;;;;;;;;2.60;99.00;;;;;;5037597;28;19893;-83
2021/01/08 09:55:37;;;;;;;;;;;2.60;98.70;;;;;;5054465;28;19905;-84
2021/01/08 09:58:03;;;;;;;;;;;2.70;98.60;;;;;;5057125;28;19901;-84
2021/01/08 10:00:30;;;;;;;;;;;2.70;98.50;;;;;;5055559;28;19913;-84
2021/01/08 10:02:56;;;;;;;;;;;2.80;98.40;;;;;;5056338;28;19924;-84
2021/01/08 10:05:22;;;;;;;;;;;2.70;98.30;;;;;;5058423;28;19968;-84
2021/01/08 10:07:49;;;;;;;;;;;2.80;98.40;;;;;;5050874;28;19913;-85
2021/01/08 10:10:15;;;;;;;;;;;2.80;98.40;;;;;;5055413;28;19919;-83
2021/01/08 10:12:45;;;;;;;;;;;2.80;98.20;;;;;;5058664;28;19904;-82
2021/01/08 10:15:12;;;;;;;;;;;2.90;98.20;;;;;;5067131;23;19909;-78
2021/01/08 10:17:45;;;;;;;;;;;2.90;98.10;;;;;;5038297;28;19904;-84
2021/01/08 10:20:12;;;;;;;;;;;2.80;98.20;;;;;;5038745;28;19910;-84
2021/01/08 10:22:45;;;;;;;;;;;2.80;98.30;;;;;;5038945;28;19932;-84
2021/01/08 10:25:23;;;;;;;;;;;2.80;97.90;;;;;;5033573;28;19918;-85
2021/01/08 10:27:49;;;;;;;;;;;2.90;97.50;;;;;;5051975;28;19976;-84
2021/01/08 10:30:15;;;;;;;;;;;2.90;97.60;;;;;;5038351;28;19897;-83
2021/01/08 10:32:48;;;;;;;;;;;2.90;97.20;;;;;;5018131;28;19906;-82
2021/01/08 10:35:15;;;;;;;;;;;3.00;97.70;;;;;;5041309;28;19901;-83
2021/01/08 10:37:40;;;;;;;;;;;3.00;97.70;;;;;;5038115;28;19951;-83
2021/01/08 10:40:07;;;;;;;;;;;3.00;97.20;;;;;;5034383;28;19898;-84
2021/01/08 10:42:33;;;;;;;;;;;3.00;97.30;;;;;;5037748;28;19914;-84
2021/01/08 10:44:59;;;;;;;;;;;3.00;97.40;;;;;;5020751;28;19909;-84
2021/01/08 10:47:25;;;;;;;;;;;3.00;97.40;;;;;;5033688;28;19921;-84
2021/01/08 10:49:51;;;;;;;;;;;3.00;97.80;;;;;;5035981;28;19952;-84
2021/01/08 10:52:17;;;;;;;;;;;3.10;97.80;;;;;;5037368;28;19913;-85
2021/01/08 10:54:44;;;;;;;;;;;3.20;97.60;;;;;;5037229;28;19910;-84
2021/01/08 10:57:11;;;;;;;;;;;3.20;97.50;;;;;;5036043;28;19905;-85
2021/01/08 10:59:36;;;;;;;;;;;3.40;97.00;;;;;;5034213;28;19901;-84
2021/01/08 11:02:05;;;;;;;;;;;3.40;96.70;;;;;;5031069;28;19910;-84
2021/01/08 11:04:31;;;;;;;;;;;3.40;96.20;;;;;;5031750;28;19928;-84
2021/01/08 11:06:57;;;;;;;;;;;3.40;96.80;;;;;;5034719;28;19910;-85
2021/01/08 11:09:23;;;;;;;;;;;3.40;97.00;;;;;;5034144;28;19968;-85
2021/01/08 11:11:48;;;;;;;;;;;3.40;96.70;;;;;;5020025;28;19897;-84
2021/01/08 11:14:20;;;;;;;;;;;3.50;96.40;;;;;;5036675;28;19945;-85
2021/01/08 11:16:46;;;;;;;;;;;3.70;95.50;;;;;;5037095;28;19952;-83
2021/01/08 11:21:57;;;;;;;;;;;3.80;95.00;;;;;;5041290;28;19940;-82
2021/01/08 11:24:23;;;;;;;;;;;3.80;95.10;;;;;;5054409;28;19921;-80
2021/01/08 11:26:48;;;;;;;;;;;3.80;95.50;;;;;;5057787;28;20000;-81
2021/01/08 11:29:16;;;;;;;;;;;3.90;94.80;;;;;;5059951;28;19901;-82
2021/01/08 11:31:42;;;;;;;;;;;3.90;95.00;;;;;;5039228;28;19898;-83
2021/01/08 11:34:11;;;;;;;;;;;4.10;94.60;;;;;;5055644;28;19898;-81
2021/01/08 11:36:37;;;;;;;;;;;4.00;94.30;;;;;;5058976;28;19921;-81
2021/01/08 11:39:03;;;;;;;;;;;4.00;94.40;;;;;;5049775;28;19909;-82
2021/01/08 11:41:29;;;;;;;;;;;4.00;94.10;;;;;;5048368;28;19916;-82
2021/01/08 11:43:54;;;;;;;;;;;4.00;94.50;;;;;;5045542;28;19910;-81
2021/01/08 11:46:21;;;;;;;;;;;4.00;93.90;;;;;;5041957;28;19909;-81
2021/01/08 11:48:50;;;;;;;;;;;3.90;94.60;;;;;;5051029;28;20342;-81
2021/01/08 11:51:22;;;;;;;;;;;3.90;95.00;;;;;;5050406;28;19904;-83
2021/01/08 11:53:54;;;;;;;;;;;3.80;95.30;;;;;;5057770;28;19893;-81
2021/01/08 11:59:05;;;;;;;;;;;3.90;95.20;;;;;;5416284;23;19909;-82
2021/01/08 12:01:32;;;;;;;;;;;3.90;94.80;;;;;;5274936;23;19967;-83
2021/01/08 12:03:58;;;;;;;;;;;3.90;95.00;;;;;;5077377;28;19928;-82
2021/01/08 12:06:34;;;;;;;;;;;3.90;95.00;;;;;;5076161;28;19901;-84
2021/01/08 12:09:01;;;;;;;;;;;3.90;94.90;;;;;;5077813;28;19908;-83
2021/01/08 12:11:34;;;;;;;;;;;3.90;95.00;;;;;;5066263;28;19973;-84
2021/01/08 12:14:09;;;;;;;;;;;3.90;94.60;;;;;;5060688;28;19960;-85
2021/01/08 12:16:35;;;;;;;;;;;3.80;94.50;;;;;;5060257;28;19977;-84
2021/01/08 12:19:01;;;;;;;;;;;3.80;94.80;;;;;;5061068;28;19897;-84
2021/01/08 12:21:29;;;;;;;;;;;3.80;95.00;;;;;;5059569;28;19924;-84
2021/01/08 12:23:55;;;;;;;;;;;3.80;95.30;;;;;;5053240;28;19917;-84
2021/01/08 12:26:22;;;;;;;;;;;3.80;95.10;;;;;;5054098;28;19916;-84
2021/01/08 12:28:49;;;;;;;;;;;3.90;94.90;;;;;;5053984;28;19910;-83
2021/01/08 12:31:15;;;;;;;;;;;4.00;94.40;;;;;;5059098;28;19893;-83
2021/01/08 12:33:43;;;;;;;;;;;4.00;94.10;;;;;;5045514;28;19901;-84
2021/01/08 12:36:18;;;;;;;;;;;4.00;93.50;;;;;;5275935;23;19919;-83
2021/01/08 12:38:45;;;;;;;;;;;4.00;94.00;;;;;;5037556;28;19913;-83
2021/01/08 12:44:17;;;;;;;;;;;4.00;93.90;;;;;;5039059;28;19913;-82
2021/01/08 12:46:47;;;;;;;;;;;3.80;94.30;;;;;;5034891;28;19905;-83
2021/01/08 12:49:14;;;;;;;;;;;3.70;94.80;;;;;;5035003;28;19914;-82
2021/01/08 12:51:39;;;;;;;;;;;3.80;94.30;;;;;;5033528;28;19921;-82
2021/01/08 12:54:05;;;;;;;;;;;3.80;94.80;;;;;;5039593;28;19897;-83
2021/01/08 12:59:38;;;;;;;;;;;3.70;94.50;;;;;;5014093;28;19957;-82
2021/01/08 13:02:05;;;;;;;;;;;3.60;95.10;;;;;;5042165;28;19900;-83
2021/01/08 13:05:09;;;;;;;;;;;3.60;95.00;;;;;;5039237;28;19937;-82
2021/01/08 13:07:36;;;;;;;;;;;3.70;95.00;;;;;;5041841;28;19918;-82
2021/01/08 13:10:02;;;;;;;;;;;3.60;94.50;;;;;;5013778;28;19898;-82
2021/01/08 13:12:30;;;;;;;;;;;3.60;94.80;;;;;;5018415;28;19898;-81
2021/01/08 13:17:59;;;;;;;;;;;3.70;94.50;;;;;;5021270;28;19983;-82
2021/01/08 13:20:25;;;;;;;;;;;3.70;94.90;;;;;;5041048;28;19897;-83
2021/01/08 13:22:51;;;;;;;;;;;3.70;94.90;;;;;;5011484;28;19918;-83
2021/01/08 13:25:18;;;;;;;;;;;3.70;94.40;;;;;;5036329;28;19909;-82
2021/01/08 13:27:44;;;;;;;;;;;3.70;94.50;;;;;;5037194;28;19909;-82
2021/01/08 13:30:10;;;;;;;;;;;3.70;94.40;;;;;;5036594;28;20394;-83
2021/01/08 13:32:36;;;;;;;;;;;3.70;93.90;;;;;;5039195;28;19920;-83
2021/01/08 13:35:02;;;;;;;;;;;3.80;94.10;;;;;;5033080;28;19948;-82
2021/01/08 13:37:30;;;;;;;;;;;3.60;94.30;;;;;;5037651;28;19948;-80
2021/01/08 13:39:56;;;;;;;;;;;3.70;94.00;;;;;;5038468;28;19959;-82
2021/01/08 13:42:27;;;;;;;;;;;3.80;94.40;;;;;;5038329;28;19909;-82
2021/01/08 13:44:53;;;;;;;;;;;3.70;94.40;;;;;;5038525;28;19936;-83
2021/01/08 13:47:19;;;;;;;;;;;3.70;93.90;;;;;;5036445;28;19957;-85
2021/01/08 13:49:45;;;;;;;;;;;3.80;93.90;;;;;;5484495;22;19930;-80
2021/01/08 13:52:11;;;;;;;;;;;3.80;94.00;;;;;;5144469;22;19933;-85
2021/01/08 13:54:37;;;;;;;;;;;3.70;94.30;;;;;;5702666;23;20033;-80
2021/01/08 14:04:49;;;;;;;;;;;3.70;94.40;;;;;;5150189;23;19957;-83
2021/01/08 14:07:14;;;;;;;;;;;3.60;94.40;;;;;;5037633;28;19913;-81
2021/01/08 14:09:40;;;;;;;;;;;3.70;94.30;;;;;;5025216;28;19914;-81
2021/01/08 14:12:08;;;;;;;;;;;3.70;94.20;;;;;;5260174;22;19930;-80
2021/01/08 14:14:34;;;;;;;;;;;3.70;94.40;;;;;;5049371;28;19976;-80
2021/01/08 14:19:35;;;;;;;;;;;3.60;94.70;;;;;;5254140;23;19909;-78
2021/01/08 14:22:01;;;;;;;;;;;3.60;94.40;;;;;;5060313;28;19940;-81
2021/01/08 14:24:27;;;;;;;;;;;3.60;95.00;;;;;;5044864;28;19909;-78
2021/01/08 14:26:55;;;;;;;;;;;3.60;94.70;;;;;;5041462;28;19924;-79
2021/01/08 14:29:21;;;;;;;;;;;3.50;94.80;;;;;;5027347;28;19916;-80
2021/01/08 14:31:47;;;;;;;;;;;3.60;95.00;;;;;;5046658;28;19910;-79
2021/01/08 14:34:16;;;;;;;;;;;3.60;94.80;;;;;;5051951;28;19986;-81
2021/01/08 14:36:43;;;;;;;;;;;3.50;95.40;;;;;;5048105;28;19924;-79
2021/01/08 14:39:11;;;;;;;;;;;3.60;95.20;;;;;;5038394;28;19913;-79
2021/01/08 14:41:37;;;;;;;;;;;3.50;94.90;;;;;;5049293;28;19904;-79
2021/01/08 14:44:03;;;;;;;;;;;3.60;94.40;;;;;;5040530;28;19909;-79
2021/01/08 14:46:29;;;;;;;;;;;3.60;94.50;;;;;;5039390;28;19910;-79
2021/01/08 14:48:55;;;;;;;;;;;3.60;94.70;;;;;;5029457;23;19929;-80
2021/01/08 14:51:25;;;;;;;;;;;3.60;94.60;;;;;;5014952;28;19917;-79
2021/01/08 14:53:50;;;;;;;;;;;3.70;94.50;;;;;;5007204;28;19952;-79
2021/01/08 14:56:16;;;;;;;;;;;3.60;94.60;;;;;;5021771;28;19918;-82
2021/01/08 14:58:41;;;;;;;;;;;3.60;94.20;;;;;;5026770;28;19916;-80
2021/01/08 15:01:07;;;;;;;;;;;3.60;94.30;;;;;;5031875;28;19918;-81
2021/01/08 15:03:32;;;;;;;;;;;3.70;94.40;;;;;;5029933;28;19973;-81
2021/01/08 15:05:58;;;;;;;;;;;3.60;94.10;;;;;;5025943;28;19922;-82
2021/01/08 15:08:23;;;;;;;;;;;3.50;94.50;;;;;;5034869;28;19917;-81
2021/01/08 15:10:55;;;;;;;;;;;3.60;94.80;;;;;;5010816;28;20287;-79
2021/01/08 15:13:22;;;;;;;;;;;3.60;95.00;;;;;;5026480;28;19921;-81
2021/01/08 15:15:47;;;;;;;;;;;3.60;94.90;;;;;;5028055;28;19922;-81
2021/01/08 15:18:13;;;;;;;;;;;3.60;94.80;;;;;;5031396;28;19894;-80
2021/01/08 15:20:54;;;;;;;;;;;3.60;94.40;;;;;;5037427;28;19897;-84
2021/01/08 15:23:19;;;;;;;;;;;3.50;94.50;;;;;;5422800;23;19925;-80
2021/01/08 15:25:45;;;;;;;;;;;3.50;94.90;;;;;;5062343;28;19932;-84
2021/01/08 15:28:11;;;;;;;;;;;3.40;95.00;;;;;;5053400;28;19952;-80
2021/01/08 15:30:36;;;;;;;;;;;3.50;94.90;;;;;;5073292;28;19912;-81
2021/01/08 15:33:02;;;;;;;;;;;3.40;94.80;;;;;;5069116;28;19897;-82
2021/01/08 15:35:28;;;;;;;;;;;3.40;94.70;;;;;;5063709;28;19988;-80
2021/01/08 15:37:53;;;;;;;;;;;3.40;94.80;;;;;;5048183;28;19968;-80
2021/01/08 15:40:18;;;;;;;;;;;3.40;94.60;;;;;;5077025;28;19897;-81
2021/01/08 15:42:44;;;;;;;;;;;3.40;94.70;;;;;;5073476;28;19909;-81
2021/01/08 15:45:10;;;;;;;;;;;3.40;94.60;;;;;;5056381;28;19916;-81
2021/01/08 15:47:35;;;;;;;;;;;3.40;94.70;;;;;;5075259;28;19916;-80
2021/01/08 15:50:01;;;;;;;;;;;3.40;94.70;;;;;;5059326;28;19893;-80
2021/01/08 15:52:26;;;;;;;;;;;3.30;94.90;;;;;;5055319;28;19914;-83
2021/01/08 15:54:53;;;;;;;;;;;3.40;94.70;;;;;;5065448;28;19916;-81
2021/01/08 15:57:18;;;;;;;;;;;3.40;94.40;;;;;;5069858;28;19993;-80
2021/01/08 15:59:44;;;;;;;;;;;3.30;94.60;;;;;;5056097;28;19913;-79
2021/01/08 16:02:09;;;;;;;;;;;3.40;94.40;;;;;;5067484;28;20007;-80
2021/01/08 16:04:35;;;;;;;;;;;3.40;94.60;;;;;;5072486;28;19984;-81
2021/01/08 16:07:00;;;;;;;;;;;3.30;94.60;;;;;;5268333;22;20796;-79
2021/01/08 16:09:26;;;;;;;;;;;3.40;94.80;;;;;;5018651;28;19917;-81
2021/01/08 16:11:52;;;;;;;;;;;3.30;95.00;;;;;;5036881;28;19932;-82
2021/01/08 16:14:17;;;;;;;;;;;3.20;95.20;;;;;;5114131;23;19926;-83
2021/01/08 16:19:32;;;;;;;;;;;3.30;94.90;;;;;;5513263;23;19924;-76
2021/01/08 16:21:58;;;;;;;;;;;3.40;94.80;;;;;;5297471;22;19948;-84
2021/01/08 16:26:59;;;;;;;;;;;3.30;95.40;;;;;;5510031;23;19940;-87
2021/01/08 16:29:25;;;;;;;;;;;3.30;95.30;;;;;;5910408;23;19932;-82
2021/01/08 16:34:32;;;;;;;;;;;3.20;95.20;;;;;;5551309;23;19910;-85
2021/01/08 16:39:34;;;;;;;;;;;3.20;95.50;;;;;;5632295;23;19932;-84
2021/01/08 16:57:32;;;;;;;;;;;3.30;95.60;;;;;;4992504;23;20095;-77
2021/01/08 17:07:44;;;;;;;;;;;3.10;96.00;;;;;;5200362;23;20199;-83
2021/01/08 17:10:09;;;;;;;;;;;3.10;95.90;;;;;;5872038;23;19924;-77
2021/01/08 17:33:17;;;;;;;;;;;3.30;95.80;;;;;;5301235;23;20383;-84
2021/01/08 17:54:37;;;;;;;;;;;3.20;95.80;;;;;;5762730;23;19916;-83
2021/01/08 19:06:54;;;;;;;;;;;3.20;94.80;;;;;;3516548;23;19916;-86
2021/01/08 19:22:20;;;;;;;;;;;3.10;95.00;;;;;;6058096;22;20021;-84
2021/01/08 19:29:56;;;;;;;;;;;3.10;94.90;;;;;;5530036;23;19931;-83
2021/01/08 19:32:21;;;;;;;;;;;3.00;94.90;;;;;;5103267;23;19985;-83
2021/01/08 19:34:47;;;;;;;;;;;3.00;95.30;;;;;;5006238;28;19956;-82
2021/01/08 19:37:12;;;;;;;;;;;3.00;95.30;;;;;;5023533;28;19927;-82
2021/01/08 19:39:38;;;;;;;;;;;3.00;95.10;;;;;;5009451;28;19906;-83
2021/01/08 19:42:03;;;;;;;;;;;3.00;95.30;;;;;;5085711;23;19936;-84
2021/01/08 20:07:41;;;;;;;;;;;3.20;93.90;;;;;;5356931;23;19928;-81
2021/01/08 20:10:08;;;;;;;;;;;3.00;94.10;;;;;;5029269;28;19905;-83
2021/01/08 20:12:34;;;;;;;;;;;3.00;94.40;;;;;;5415579;23;19935;-81
2021/01/08 20:14:59;;;;;;;;;;;3.00;94.10;;;;;;5029805;28;19918;-79
2021/01/08 20:17:25;;;;;;;;;;;3.00;94.40;;;;;;5022533;28;19906;-79
2021/01/08 20:19:51;;;;;;;;;;;3.00;94.50;;;;;;5028303;28;19902;-79
2021/01/08 20:22:18;;;;;;;;;;;3.00;94.60;;;;;;5025153;28;19914;-80
2021/01/08 20:24:44;;;;;;;;;;;2.90;94.80;;;;;;5266381;23;19926;-81
2021/01/08 20:27:10;;;;;;;;;;;3.00;94.80;;;;;;5272006;23;19909;-85
2021/01/08 20:45:08;;;;;;;;;;;2.90;93.90;;;;;;5555465;23;19930;-85
2021/01/08 22:15:34;;;;;;;;;;;2.60;92.60;;;;;;5923182;23;19944;-75
2021/01/08 22:43:53;;;;;;;;;;;2.20;93.60;;;;;;5838858;23;19945;-86
2021/01/08 22:54:06;;;;;;;;;;;2.00;93.70;;;;;;5077565;23;19921;-87
2021/01/08 23:12:04;;;;;;;;;;;1.90;92.70;;;;;;5787147;22;19926;-84
2021/01/08 23:14:30;;;;;;;;;;;1.90;93.30;;;;;;5809725;23;19939;-79
2021/01/08 23:16:56;;;;;;;;;;;1.80;92.90;;;;;;5191906;23;19925;-85
2021/01/08 23:19:31;;;;;;;;;;;1.90;93.30;;;;;;5024577;28;19905;-85
2021/01/08 23:21:56;;;;;;;;;;;1.80;93.20;;;;;;5023089;28;20389;-84
2021/01/08 23:26:58;;;;;;;;;;;1.70;93.20;;;;;;5145639;23;19916;-86
2021/01/08 23:31:59;;;;;;;;;;;1.80;93.40;;;;;;5495644;23;19925;-86
2021/01/08 23:34:24;;;;;;;;;;;1.90;93.10;;;;;;5042403;28;19984;-85
2021/01/08 23:36:50;;;;;;;;;;;1.80;93.00;;;;;;5254182;23;19948;-85
2021/01/08 23:41:51;;;;;;;;;;;1.70;93.50;;;;;;6072350;23;19944;-83
2021/01/08 23:44:17;;;;;;;;;;;1.70;93.50;;;;;;5552159;23;20013;-85
2021/01/08 23:46:43;;;;;;;;;;;1.70;93.20;;;;;;5032202;28;19916;-85
2021/01/08 23:54:12;;;;;;;;;;;1.80;93.00;;;;;;5060619;28;19909;-85
